sensor_id;sensor_type;location;lat;lon;timestamp;temperature;humidity
28773;DHT22;15925;51.222;5.678;2022-10-26T00:02:16;12.30;99.90
28773;DHT22;15925;51.222;5.678;2022-10-26T00:04:42;12.30;99.90
28773;DHT22;15925;51.222;5.678;2022-10-26T00:07:07;12.30;99.90
28773;DHT22;15925;51.222;5.678;2022-10-26T00:09:33;12.20;99.90
28773;DHT22;15925;51.222;5.678;2022-10-26T00:11:59;12.30;99.90
28773;DHT22;15925;51.222;5.678;2022-10-26T00:14:25;12.30;99.90
28773;DHT22;15925;51.222;5.678;2022-10-26T00:16:51;12.40;99.90
28773;DHT22;15925;51.222;5.678;2022-10-26T00:19:17;12.40;99.90
28773;DHT22;15925;51.222;5.678;2022-10-26T00:21:43;12.40;99.90
28773;DHT22;15925;51.222;5.678;2022-10-26T00:24:10;12.50;99.90
28773;DHT22;15925;51.222;5.678;2022-10-26T00:26:37;12.50;99.90
28773;DHT22;15925;51.222;5.678;2022-10-26T00:29:03;12.50;99.90
28773;DHT22;15925;51.222;5.678;2022-10-26T00:31:29;12.50;99.90
28773;DHT22;15925;51.222;5.678;2022-10-26T00:33:55;12.60;99.90
28773;DHT22;15925;51.222;5.678;2022-10-26T00:36:22;12.60;99.90
28773;DHT22;15925;51.222;5.678;2022-10-26T00:38:53;12.60;99.90
28773;DHT22;15925;51.222;5.678;2022-10-26T00:41:23;12.50;99.90
28773;DHT22;15925;51.222;5.678;2022-10-26T00:43:49;12.60;99.90
28773;DHT22;15925;51.222;5.678;2022-10-26T00:46:19;12.60;99.90
28773;DHT22;15925;51.222;5.678;2022-10-26T00:49:09;12.60;99.90
28773;DHT22;15925;51.222;5.678;2022-10-26T00:51:35;12.60;99.90
28773;DHT22;15925;51.222;5.678;2022-10-26T00:54:08;12.60;99.90
28773;DHT22;15925;51.222;5.678;2022-10-26T00:56:35;12.50;99.90
28773;DHT22;15925;51.222;5.678;2022-10-26T00:59:04;12.50;99.90
28773;DHT22;15925;51.222;5.678;2022-10-26T01:01:32;12.40;99.90
28773;DHT22;15925;51.222;5.678;2022-10-26T01:04:00;12.40;99.90
28773;DHT22;15925;51.222;5.678;2022-10-26T01:06:31;12.50;99.90
28773;DHT22;15925;51.222;5.678;2022-10-26T01:08:57;12.50;99.90
28773;DHT22;15925;51.222;5.678;2022-10-26T01:11:23;12.50;99.90
28773;DHT22;15925;51.222;5.678;2022-10-26T01:13:50;12.40;99.90
28773;DHT22;15925;51.222;5.678;2022-10-26T01:21:59;12.50;99.90
28773;DHT22;15925;51.222;5.678;2022-10-26T01:30:20;12.40;99.90
28773;DHT22;15925;51.222;5.678;2022-10-26T01:41:22;12.40;99.90
28773;DHT22;15925;51.222;5.678;2022-10-26T01:43:55;12.50;99.90
28773;DHT22;15925;51.222;5.678;2022-10-26T01:46:23;12.50;99.90
28773;DHT22;15925;51.222;5.678;2022-10-26T01:48:58;12.50;99.90
28773;DHT22;15925;51.222;5.678;2022-10-26T01:51:26;12.50;99.90
28773;DHT22;15925;51.222;5.678;2022-10-26T01:53:53;12.40;99.90
28773;DHT22;15925;51.222;5.678;2022-10-26T01:56:22;12.40;99.90
28773;DHT22;15925;51.222;5.678;2022-10-26T02:04:35;12.50;99.90
28773;DHT22;15925;51.222;5.678;2022-10-26T02:15:12;12.50;99.90
28773;DHT22;15925;51.222;5.678;2022-10-26T02:18:00;12.50;99.90
28773;DHT22;15925;51.222;5.678;2022-10-26T02:20:39;12.50;99.90
28773;DHT22;15925;51.222;5.678;2022-10-26T02:23:08;12.60;99.90
28773;DHT22;15925;51.222;5.678;2022-10-26T02:25:43;12.60;99.90
28773;DHT22;15925;51.222;5.678;2022-10-26T02:28:13;12.60;99.90
28773;DHT22;15925;51.222;5.678;2022-10-26T02:30:41;12.60;99.90
28773;DHT22;15925;51.222;5.678;2022-10-26T02:33:09;12.60;99.90
28773;DHT22;15925;51.222;5.678;2022-10-26T02:35:38;12.70;99.90
28773;DHT22;15925;51.222;5.678;2022-10-26T02:38:08;12.70;99.90
28773;DHT22;15925;51.222;5.678;2022-10-26T02:40:36;12.70;99.90
28773;DHT22;15925;51.222;5.678;2022-10-26T02:43:06;12.80;99.90
28773;DHT22;15925;51.222;5.678;2022-10-26T02:45:37;12.70;99.90
28773;DHT22;15925;51.222;5.678;2022-10-26T02:48:06;12.70;99.90
28773;DHT22;15925;51.222;5.678;2022-10-26T02:51:19;12.60;99.90
28773;DHT22;15925;51.222;5.678;2022-10-26T02:53:33;12.70;99.90
28773;DHT22;15925;51.222;5.678;2022-10-26T02:56:06;12.70;99.90
28773;DHT22;15925;51.222;5.678;2022-10-26T02:58:39;12.70;99.90
28773;DHT22;15925;51.222;5.678;2022-10-26T03:01:06;12.70;99.90
28773;DHT22;15925;51.222;5.678;2022-10-26T03:03:32;12.70;99.90
28773;DHT22;15925;51.222;5.678;2022-10-26T03:05:58;12.80;99.90
28773;DHT22;15925;51.222;5.678;2022-10-26T03:08:23;12.80;99.90
28773;DHT22;15925;51.222;5.678;2022-10-26T03:10:49;12.70;99.90
28773;DHT22;15925;51.222;5.678;2022-10-26T03:13:15;12.70;99.90
28773;DHT22;15925;51.222;5.678;2022-10-26T03:15:40;12.80;99.90
28773;DHT22;15925;51.222;5.678;2022-10-26T03:18:07;12.80;99.90
28773;DHT22;15925;51.222;5.678;2022-10-26T03:20:33;12.80;99.90
28773;DHT22;15925;51.222;5.678;2022-10-26T03:22:59;12.90;99.90
28773;DHT22;15925;51.222;5.678;2022-10-26T03:25:24;12.90;99.90
28773;DHT22;15925;51.222;5.678;2022-10-26T03:28:01;12.90;99.90
28773;DHT22;15925;51.222;5.678;2022-10-26T03:30:29;12.90;99.90
28773;DHT22;15925;51.222;5.678;2022-10-26T03:32:55;12.90;99.90
28773;DHT22;15925;51.222;5.678;2022-10-26T03:35:21;12.90;99.90
28773;DHT22;15925;51.222;5.678;2022-10-26T03:37:47;12.90;99.90
28773;DHT22;15925;51.222;5.678;2022-10-26T03:40:13;12.90;99.90
28773;DHT22;15925;51.222;5.678;2022-10-26T03:42:39;12.90;99.90
28773;DHT22;15925;51.222;5.678;2022-10-26T03:45:06;12.80;99.90
28773;DHT22;15925;51.222;5.678;2022-10-26T03:47:32;12.90;99.90
28773;DHT22;15925;51.222;5.678;2022-10-26T03:49:58;12.90;99.90
28773;DHT22;15925;51.222;5.678;2022-10-26T03:52:24;12.90;99.90
28773;DHT22;15925;51.222;5.678;2022-10-26T03:54:51;12.90;99.90
28773;DHT22;15925;51.222;5.678;2022-10-26T03:57:17;12.90;99.90
28773;DHT22;15925;51.222;5.678;2022-10-26T03:59:42;12.90;99.90
28773;DHT22;15925;51.222;5.678;2022-10-26T04:02:08;12.90;99.90
28773;DHT22;15925;51.222;5.678;2022-10-26T04:04:36;13.00;99.90
28773;DHT22;15925;51.222;5.678;2022-10-26T04:07:02;13.00;99.90
28773;DHT22;15925;51.222;5.678;2022-10-26T04:09:28;12.90;99.90
28773;DHT22;15925;51.222;5.678;2022-10-26T04:11:54;13.00;99.90
28773;DHT22;15925;51.222;5.678;2022-10-26T04:14:20;13.00;99.90
28773;DHT22;15925;51.222;5.678;2022-10-26T04:16:47;13.00;99.90
28773;DHT22;15925;51.222;5.678;2022-10-26T04:19:13;13.10;99.90
28773;DHT22;15925;51.222;5.678;2022-10-26T04:21:39;13.00;99.90
28773;DHT22;15925;51.222;5.678;2022-10-26T04:24:05;13.00;99.90
28773;DHT22;15925;51.222;5.678;2022-10-26T04:26:30;13.00;99.90
28773;DHT22;15925;51.222;5.678;2022-10-26T04:28:56;13.10;99.90
28773;DHT22;15925;51.222;5.678;2022-10-26T04:31:22;13.20;99.90
28773;DHT22;15925;51.222;5.678;2022-10-26T04:33:48;13.10;99.90
28773;DHT22;15925;51.222;5.678;2022-10-26T04:36:15;13.00;99.90
28773;DHT22;15925;51.222;5.678;2022-10-26T04:38:41;13.00;99.90
28773;DHT22;15925;51.222;5.678;2022-10-26T04:41:07;13.00;99.90
28773;DHT22;15925;51.222;5.678;2022-10-26T04:43:33;13.00;99.90
28773;DHT22;15925;51.222;5.678;2022-10-26T04:45:58;13.00;99.90
28773;DHT22;15925;51.222;5.678;2022-10-26T04:48:24;13.00;99.90
28773;DHT22;15925;51.222;5.678;2022-10-26T04:50:50;13.00;99.90
28773;DHT22;15925;51.222;5.678;2022-10-26T04:53:16;13.00;99.90
28773;DHT22;15925;51.222;5.678;2022-10-26T04:55:42;13.00;99.90
28773;DHT22;15925;51.222;5.678;2022-10-26T04:58:07;13.00;99.90
28773;DHT22;15925;51.222;5.678;2022-10-26T05:00:34;13.00;99.90
28773;DHT22;15925;51.222;5.678;2022-10-26T05:03:01;13.10;99.90
28773;DHT22;15925;51.222;5.678;2022-10-26T05:05:29;13.10;99.90
28773;DHT22;15925;51.222;5.678;2022-10-26T05:07:55;13.10;99.90
28773;DHT22;15925;51.222;5.678;2022-10-26T05:10:22;13.10;99.90
28773;DHT22;15925;51.222;5.678;2022-10-26T05:12:51;13.20;99.90
28773;DHT22;15925;51.222;5.678;2022-10-26T05:15:17;13.10;99.90
28773;DHT22;15925;51.222;5.678;2022-10-26T05:17:43;13.10;99.90
28773;DHT22;15925;51.222;5.678;2022-10-26T05:20:09;13.10;99.90
28773;DHT22;15925;51.222;5.678;2022-10-26T05:22:41;13.20;99.90
28773;DHT22;15925;51.222;5.678;2022-10-26T05:25:07;13.20;99.90
28773;DHT22;15925;51.222;5.678;2022-10-26T05:27:33;13.20;99.90
28773;DHT22;15925;51.222;5.678;2022-10-26T05:29:59;13.20;99.90
28773;DHT22;15925;51.222;5.678;2022-10-26T05:32:24;13.20;99.90
28773;DHT22;15925;51.222;5.678;2022-10-26T05:34:50;13.20;99.90
28773;DHT22;15925;51.222;5.678;2022-10-26T05:37:16;13.20;99.90
28773;DHT22;15925;51.222;5.678;2022-10-26T05:39:42;13.20;99.90
28773;DHT22;15925;51.222;5.678;2022-10-26T05:42:10;13.20;99.90
28773;DHT22;15925;51.222;5.678;2022-10-26T05:44:36;13.10;99.90
28773;DHT22;15925;51.222;5.678;2022-10-26T05:47:02;13.20;99.90
28773;DHT22;15925;51.222;5.678;2022-10-26T05:49:28;13.10;99.90
28773;DHT22;15925;51.222;5.678;2022-10-26T05:51:53;13.20;99.90
28773;DHT22;15925;51.222;5.678;2022-10-26T05:54:19;13.20;99.90
28773;DHT22;15925;51.222;5.678;2022-10-26T05:56:45;13.20;99.90
28773;DHT22;15925;51.222;5.678;2022-10-26T05:59:13;13.20;99.90
28773;DHT22;15925;51.222;5.678;2022-10-26T06:04:36;13.20;99.90
28773;DHT22;15925;51.222;5.678;2022-10-26T06:07:11;13.20;99.90
28773;DHT22;15925;51.222;5.678;2022-10-26T06:09:38;13.20;99.90
28773;DHT22;15925;51.222;5.678;2022-10-26T06:12:04;13.30;99.90
28773;DHT22;15925;51.222;5.678;2022-10-26T06:14:33;13.30;99.90
28773;DHT22;15925;51.222;5.678;2022-10-26T06:19:46;13.30;99.90
28773;DHT22;15925;51.222;5.678;2022-10-26T06:25:19;13.40;99.90
28773;DHT22;15925;51.222;5.678;2022-10-26T06:30:22;13.30;99.90
28773;DHT22;15925;51.222;5.678;2022-10-26T06:32:49;13.40;99.90
28773;DHT22;15925;51.222;5.678;2022-10-26T06:38:13;13.40;99.90
28773;DHT22;15925;51.222;5.678;2022-10-26T06:40:43;13.40;99.90
28773;DHT22;15925;51.222;5.678;2022-10-26T06:43:31;13.40;99.90
28773;DHT22;15925;51.222;5.678;2022-10-26T06:46:20;13.40;99.90
28773;DHT22;15925;51.222;5.678;2022-10-26T06:49:13;13.40;99.90
28773;DHT22;15925;51.222;5.678;2022-10-26T06:54:49;13.40;99.90
28773;DHT22;15925;51.222;5.678;2022-10-26T06:57:18;13.40;99.90
28773;DHT22;15925;51.222;5.678;2022-10-26T06:59:51;13.50;99.90
28773;DHT22;15925;51.222;5.678;2022-10-26T07:02:17;13.40;99.90
28773;DHT22;15925;51.222;5.678;2022-10-26T07:04:45;13.40;99.90
28773;DHT22;15925;51.222;5.678;2022-10-26T07:07:17;13.40;99.90
28773;DHT22;15925;51.222;5.678;2022-10-26T07:09:44;13.40;99.90
28773;DHT22;15925;51.222;5.678;2022-10-26T07:12:10;13.40;99.90
28773;DHT22;15925;51.222;5.678;2022-10-26T07:14:35;13.40;99.90
28773;DHT22;15925;51.222;5.678;2022-10-26T07:17:02;13.40;99.90
28773;DHT22;15925;51.222;5.678;2022-10-26T07:19:28;13.40;99.90
28773;DHT22;15925;51.222;5.678;2022-10-26T07:21:54;13.50;99.90
28773;DHT22;15925;51.222;5.678;2022-10-26T07:24:29;13.50;99.90
28773;DHT22;15925;51.222;5.678;2022-10-26T07:26:56;13.50;99.90
28773;DHT22;15925;51.222;5.678;2022-10-26T07:29:23;13.40;99.90
28773;DHT22;15925;51.222;5.678;2022-10-26T07:31:49;13.50;99.90
28773;DHT22;15925;51.222;5.678;2022-10-26T07:34:15;13.50;99.90
28773;DHT22;15925;51.222;5.678;2022-10-26T07:36:41;13.50;99.90
28773;DHT22;15925;51.222;5.678;2022-10-26T07:39:07;13.60;99.90
28773;DHT22;15925;51.222;5.678;2022-10-26T07:41:33;13.60;99.90
28773;DHT22;15925;51.222;5.678;2022-10-26T07:43:59;13.60;99.90
28773;DHT22;15925;51.222;5.678;2022-10-26T07:46:25;13.60;99.90
28773;DHT22;15925;51.222;5.678;2022-10-26T07:48:51;13.60;99.90
28773;DHT22;15925;51.222;5.678;2022-10-26T07:51:17;13.60;99.90
28773;DHT22;15925;51.222;5.678;2022-10-26T07:53:44;13.60;99.90
28773;DHT22;15925;51.222;5.678;2022-10-26T07:56:10;13.60;99.90
28773;DHT22;15925;51.222;5.678;2022-10-26T07:58:36;13.70;99.90
28773;DHT22;15925;51.222;5.678;2022-10-26T08:01:13;13.70;99.90
28773;DHT22;15925;51.222;5.678;2022-10-26T08:03:39;13.80;99.90
28773;DHT22;15925;51.222;5.678;2022-10-26T08:06:05;13.80;99.90
28773;DHT22;15925;51.222;5.678;2022-10-26T08:08:32;13.80;99.90
28773;DHT22;15925;51.222;5.678;2022-10-26T08:10:58;13.90;99.90
28773;DHT22;15925;51.222;5.678;2022-10-26T08:13:24;14.00;99.90
28773;DHT22;15925;51.222;5.678;2022-10-26T08:15:56;14.00;99.90
28773;DHT22;15925;51.222;5.678;2022-10-26T08:18:22;14.20;99.90
28773;DHT22;15925;51.222;5.678;2022-10-26T08:20:48;14.30;99.90
28773;DHT22;15925;51.222;5.678;2022-10-26T08:23:14;14.40;99.90
28773;DHT22;15925;51.222;5.678;2022-10-26T08:25:40;14.50;99.90
28773;DHT22;15925;51.222;5.678;2022-10-26T08:28:05;14.50;99.90
28773;DHT22;15925;51.222;5.678;2022-10-26T08:30:32;14.70;99.90
28773;DHT22;15925;51.222;5.678;2022-10-26T08:33:05;14.80;99.90
28773;DHT22;15925;51.222;5.678;2022-10-26T08:35:33;14.80;99.90
28773;DHT22;15925;51.222;5.678;2022-10-26T08:38:00;14.90;99.90
28773;DHT22;15925;51.222;5.678;2022-10-26T08:40:35;15.10;99.90
28773;DHT22;15925;51.222;5.678;2022-10-26T08:43:15;15.20;99.90
28773;DHT22;15925;51.222;5.678;2022-10-26T08:45:51;15.30;99.90
28773;DHT22;15925;51.222;5.678;2022-10-26T08:48:32;15.40;99.90
28773;DHT22;15925;51.222;5.678;2022-10-26T08:51:05;15.50;99.90
28773;DHT22;15925;51.222;5.678;2022-10-26T08:53:42;15.60;99.90
28773;DHT22;15925;51.222;5.678;2022-10-26T08:56:28;15.60;99.90
28773;DHT22;15925;51.222;5.678;2022-10-26T08:59:00;15.80;99.90
28773;DHT22;15925;51.222;5.678;2022-10-26T09:01:30;15.90;99.90
28773;DHT22;15925;51.222;5.678;2022-10-26T09:03:56;16.00;99.90
28773;DHT22;15925;51.222;5.678;2022-10-26T09:12:18;16.20;99.90
28773;DHT22;15925;51.222;5.678;2022-10-26T09:15:11;16.30;99.90
28773;DHT22;15925;51.222;5.678;2022-10-26T09:24:15;16.70;99.90
28773;DHT22;15925;51.222;5.678;2022-10-26T09:26:57;16.70;99.90
28773;DHT22;15925;51.222;5.678;2022-10-26T09:29:30;16.80;99.90
28773;DHT22;15925;51.222;5.678;2022-10-26T09:31:59;16.90;99.90
28773;DHT22;15925;51.222;5.678;2022-10-26T09:34:27;17.00;99.90
28773;DHT22;15925;51.222;5.678;2022-10-26T09:36:54;17.10;99.90
28773;DHT22;15925;51.222;5.678;2022-10-26T09:39:39;17.10;99.90
28773;DHT22;15925;51.222;5.678;2022-10-26T09:42:16;17.20;99.90
28773;DHT22;15925;51.222;5.678;2022-10-26T09:45:45;17.20;99.90
28773;DHT22;15925;51.222;5.678;2022-10-26T09:47:53;17.30;99.90
28773;DHT22;15925;51.222;5.678;2022-10-26T09:50:48;17.40;99.90
28773;DHT22;15925;51.222;5.678;2022-10-26T09:53:14;17.50;99.90
28773;DHT22;15925;51.222;5.678;2022-10-26T09:55:42;17.60;99.90
28773;DHT22;15925;51.222;5.678;2022-10-26T09:58:19;17.70;99.90
28773;DHT22;15925;51.222;5.678;2022-10-26T10:00:45;17.70;99.90
28773;DHT22;15925;51.222;5.678;2022-10-26T10:03:26;17.90;99.90
28773;DHT22;15925;51.222;5.678;2022-10-26T10:05:53;17.90;99.90
28773;DHT22;15925;51.222;5.678;2022-10-26T10:08:39;18.00;99.90
28773;DHT22;15925;51.222;5.678;2022-10-26T10:11:08;18.00;99.90
28773;DHT22;15925;51.222;5.678;2022-10-26T10:13:37;18.00;99.90
28773;DHT22;15925;51.222;5.678;2022-10-26T10:18:35;18.10;99.90
28773;DHT22;15925;51.222;5.678;2022-10-26T10:21:03;18.10;99.90
28773;DHT22;15925;51.222;5.678;2022-10-26T10:23:47;18.20;99.90
28773;DHT22;15925;51.222;5.678;2022-10-26T10:26:13;18.20;99.90
28773;DHT22;15925;51.222;5.678;2022-10-26T10:28:40;18.30;99.90
28773;DHT22;15925;51.222;5.678;2022-10-26T10:31:27;18.30;99.90
28773;DHT22;15925;51.222;5.678;2022-10-26T10:33:53;18.30;99.90
28773;DHT22;15925;51.222;5.678;2022-10-26T10:36:22;18.40;99.90
28773;DHT22;15925;51.222;5.678;2022-10-26T10:38:50;18.40;99.90
28773;DHT22;15925;51.222;5.678;2022-10-26T10:41:21;18.50;99.90
28773;DHT22;15925;51.222;5.678;2022-10-26T10:46:31;18.50;99.90
28773;DHT22;15925;51.222;5.678;2022-10-26T10:49:08;18.60;99.90
28773;DHT22;15925;51.222;5.678;2022-10-26T10:51:40;18.60;99.90
28773;DHT22;15925;51.222;5.678;2022-10-26T10:54:21;18.60;99.90
28773;DHT22;15925;51.222;5.678;2022-10-26T10:57:01;18.70;99.90
28773;DHT22;15925;51.222;5.678;2022-10-26T11:08:11;19.00;99.90
28773;DHT22;15925;51.222;5.678;2022-10-26T11:11:08;19.10;99.90
28773;DHT22;15925;51.222;5.678;2022-10-26T11:13:39;19.20;99.90
28773;DHT22;15925;51.222;5.678;2022-10-26T11:16:19;19.20;99.90
28773;DHT22;15925;51.222;5.678;2022-10-26T11:18:56;19.30;99.90
28773;DHT22;15925;51.222;5.678;2022-10-26T11:21:27;19.30;99.90
28773;DHT22;15925;51.222;5.678;2022-10-26T11:26:56;19.40;99.90
28773;DHT22;15925;51.222;5.678;2022-10-26T11:29:28;19.40;99.90
28773;DHT22;15925;51.222;5.678;2022-10-26T11:35:08;19.50;99.90
28773;DHT22;15925;51.222;5.678;2022-10-26T11:37:59;19.50;99.90
28773;DHT22;15925;51.222;5.678;2022-10-26T11:40:37;19.50;99.90
28773;DHT22;15925;51.222;5.678;2022-10-26T11:45:56;19.50;99.90
28773;DHT22;15925;51.222;5.678;2022-10-26T11:48:32;19.60;99.90
28773;DHT22;15925;51.222;5.678;2022-10-26T11:51:01;19.60;99.90
28773;DHT22;15925;51.222;5.678;2022-10-26T11:53:28;19.60;99.90
28773;DHT22;15925;51.222;5.678;2022-10-26T11:55:55;19.60;99.90
28773;DHT22;15925;51.222;5.678;2022-10-26T11:58:24;19.60;99.90
28773;DHT22;15925;51.222;5.678;2022-10-26T12:01:00;19.70;99.90
28773;DHT22;15925;51.222;5.678;2022-10-26T12:03:30;19.80;99.90
28773;DHT22;15925;51.222;5.678;2022-10-26T12:05:57;19.80;99.90
28773;DHT22;15925;51.222;5.678;2022-10-26T12:08:41;19.90;99.90
28773;DHT22;15925;51.222;5.678;2022-10-26T12:14:39;19.90;99.90
28773;DHT22;15925;51.222;5.678;2022-10-26T12:17:29;20.00;99.90
28773;DHT22;15925;51.222;5.678;2022-10-26T12:20:30;20.10;99.90
28773;DHT22;15925;51.222;5.678;2022-10-26T12:23:03;20.10;99.90
28773;DHT22;15925;51.222;5.678;2022-10-26T12:25:29;20.20;99.90
28773;DHT22;15925;51.222;5.678;2022-10-26T12:27:56;20.20;99.90
28773;DHT22;15925;51.222;5.678;2022-10-26T12:30:26;20.20;99.90
28773;DHT22;15925;51.222;5.678;2022-10-26T12:33:26;20.20;99.90
28773;DHT22;15925;51.222;5.678;2022-10-26T12:35:49;20.20;99.90
28773;DHT22;15925;51.222;5.678;2022-10-26T12:48:42;20.30;99.90
28773;DHT22;15925;51.222;5.678;2022-10-26T12:56:45;20.40;99.90
28773;DHT22;15925;51.222;5.678;2022-10-26T13:08:26;20.50;99.90
28773;DHT22;15925;51.222;5.678;2022-10-26T13:11:11;20.50;99.90
28773;DHT22;15925;51.222;5.678;2022-10-26T13:13:39;20.40;99.90
28773;DHT22;15925;51.222;5.678;2022-10-26T13:16:10;20.50;99.90
28773;DHT22;15925;51.222;5.678;2022-10-26T13:18:43;20.50;99.90
28773;DHT22;15925;51.222;5.678;2022-10-26T13:21:11;20.50;99.90
28773;DHT22;15925;51.222;5.678;2022-10-26T13:26:28;20.40;99.90
28773;DHT22;15925;51.222;5.678;2022-10-26T13:28:59;20.40;99.90
28773;DHT22;15925;51.222;5.678;2022-10-26T13:34:00;20.50;99.90
28773;DHT22;15925;51.222;5.678;2022-10-26T13:36:37;20.40;99.90
28773;DHT22;15925;51.222;5.678;2022-10-26T13:39:30;20.50;99.90
28773;DHT22;15925;51.222;5.678;2022-10-26T13:41:55;20.50;99.90
28773;DHT22;15925;51.222;5.678;2022-10-26T13:47:09;20.50;99.90
28773;DHT22;15925;51.222;5.678;2022-10-26T13:49:39;20.50;99.90
28773;DHT22;15925;51.222;5.678;2022-10-26T13:52:13;20.60;99.90
28773;DHT22;15925;51.222;5.678;2022-10-26T13:55:12;20.50;99.90
28773;DHT22;15925;51.222;5.678;2022-10-26T14:00:38;20.60;99.90
28773;DHT22;15925;51.222;5.678;2022-10-26T14:03:16;20.50;99.90
28773;DHT22;15925;51.222;5.678;2022-10-26T14:05:48;20.60;99.90
28773;DHT22;15925;51.222;5.678;2022-10-26T14:08:17;20.50;99.90
28773;DHT22;15925;51.222;5.678;2022-10-26T14:11:02;20.50;99.90
28773;DHT22;15925;51.222;5.678;2022-10-26T14:13:28;20.50;99.90
28773;DHT22;15925;51.222;5.678;2022-10-26T14:15:55;20.50;99.90
28773;DHT22;15925;51.222;5.678;2022-10-26T14:18:22;20.50;99.90
28773;DHT22;15925;51.222;5.678;2022-10-26T14:21:01;20.50;99.90
28773;DHT22;15925;51.222;5.678;2022-10-26T14:23:36;20.50;99.90
28773;DHT22;15925;51.222;5.678;2022-10-26T14:26:27;20.40;99.90
28773;DHT22;15925;51.222;5.678;2022-10-26T14:28:56;20.40;99.90
28773;DHT22;15925;51.222;5.678;2022-10-26T14:31:31;20.40;99.90
28773;DHT22;15925;51.222;5.678;2022-10-26T14:33:58;20.30;99.90
28773;DHT22;15925;51.222;5.678;2022-10-26T14:36:28;20.30;99.90
28773;DHT22;15925;51.222;5.678;2022-10-26T14:39:02;20.30;99.90
28773;DHT22;15925;51.222;5.678;2022-10-26T14:41:30;20.30;99.90
28773;DHT22;15925;51.222;5.678;2022-10-26T14:43:57;20.30;99.90
28773;DHT22;15925;51.222;5.678;2022-10-26T14:46:24;20.20;99.90
28773;DHT22;15925;51.222;5.678;2022-10-26T14:48:56;20.20;99.90
28773;DHT22;15925;51.222;5.678;2022-10-26T14:51:27;20.20;99.90
28773;DHT22;15925;51.222;5.678;2022-10-26T14:53:57;20.20;99.90
28773;DHT22;15925;51.222;5.678;2022-10-26T14:56:30;20.10;99.90
28773;DHT22;15925;51.222;5.678;2022-10-26T14:59:32;20.10;99.90
28773;DHT22;15925;51.222;5.678;2022-10-26T15:04:38;20.10;99.90
28773;DHT22;15925;51.222;5.678;2022-10-26T15:07:19;20.00;99.90
28773;DHT22;15925;51.222;5.678;2022-10-26T15:14:45;20.00;99.90
28773;DHT22;15925;51.222;5.678;2022-10-26T15:17:23;20.00;99.90
28773;DHT22;15925;51.222;5.678;2022-10-26T15:19:52;20.00;99.90
28773;DHT22;15925;51.222;5.678;2022-10-26T15:22:25;20.00;99.90
28773;DHT22;15925;51.222;5.678;2022-10-26T15:24:53;19.90;99.90
28773;DHT22;15925;51.222;5.678;2022-10-26T15:27:21;19.90;99.90
28773;DHT22;15925;51.222;5.678;2022-10-26T15:29:50;19.90;99.90
28773;DHT22;15925;51.222;5.678;2022-10-26T15:32:29;19.90;99.90
28773;DHT22;15925;51.222;5.678;2022-10-26T15:35:24;19.90;99.90
28773;DHT22;15925;51.222;5.678;2022-10-26T15:37:52;19.80;99.90
28773;DHT22;15925;51.222;5.678;2022-10-26T15:40:18;19.80;99.90
28773;DHT22;15925;51.222;5.678;2022-10-26T15:42:49;19.80;99.90
28773;DHT22;15925;51.222;5.678;2022-10-26T15:45:17;19.70;99.90
28773;DHT22;15925;51.222;5.678;2022-10-26T15:47:44;19.70;99.90
28773;DHT22;15925;51.222;5.678;2022-10-26T15:50:17;19.70;99.90
28773;DHT22;15925;51.222;5.678;2022-10-26T15:52:43;19.70;99.90
28773;DHT22;15925;51.222;5.678;2022-10-26T15:55:09;19.70;99.90
28773;DHT22;15925;51.222;5.678;2022-10-26T15:57:36;19.60;99.90
28773;DHT22;15925;51.222;5.678;2022-10-26T16:00:04;19.60;99.90
28773;DHT22;15925;51.222;5.678;2022-10-26T16:02:32;19.60;99.90
28773;DHT22;15925;51.222;5.678;2022-10-26T16:04:58;19.50;99.90
28773;DHT22;15925;51.222;5.678;2022-10-26T16:07:25;19.50;99.90
28773;DHT22;15925;51.222;5.678;2022-10-26T16:09:52;19.50;99.90
28773;DHT22;15925;51.222;5.678;2022-10-26T16:12:18;19.40;99.90
28773;DHT22;15925;51.222;5.678;2022-10-26T16:14:44;19.40;99.90
28773;DHT22;15925;51.222;5.678;2022-10-26T16:17:10;19.30;99.90
28773;DHT22;15925;51.222;5.678;2022-10-26T16:19:36;19.30;99.90
28773;DHT22;15925;51.222;5.678;2022-10-26T16:22:02;19.20;99.90
28773;DHT22;15925;51.222;5.678;2022-10-26T16:24:28;19.20;99.90
28773;DHT22;15925;51.222;5.678;2022-10-26T16:26:55;19.20;99.90
28773;DHT22;15925;51.222;5.678;2022-10-26T16:29:21;19.10;99.90
28773;DHT22;15925;51.222;5.678;2022-10-26T16:31:47;19.00;99.90
28773;DHT22;15925;51.222;5.678;2022-10-26T16:34:13;19.00;99.90
28773;DHT22;15925;51.222;5.678;2022-10-26T16:36:40;19.00;99.90
28773;DHT22;15925;51.222;5.678;2022-10-26T16:39:05;18.90;99.90
28773;DHT22;15925;51.222;5.678;2022-10-26T16:41:32;18.80;99.90
28773;DHT22;15925;51.222;5.678;2022-10-26T16:43:59;18.70;99.90
28773;DHT22;15925;51.222;5.678;2022-10-26T16:46:24;18.70;99.90
28773;DHT22;15925;51.222;5.678;2022-10-26T16:48:51;18.60;99.90
28773;DHT22;15925;51.222;5.678;2022-10-26T16:51:25;18.50;99.90
28773;DHT22;15925;51.222;5.678;2022-10-26T16:53:53;18.50;99.90
28773;DHT22;15925;51.222;5.678;2022-10-26T16:56:25;18.40;99.90
28773;DHT22;15925;51.222;5.678;2022-10-26T16:58:52;18.30;99.90
28773;DHT22;15925;51.222;5.678;2022-10-26T17:01:19;18.20;99.90
28773;DHT22;15925;51.222;5.678;2022-10-26T17:03:47;18.10;99.90
28773;DHT22;15925;51.222;5.678;2022-10-26T17:06:14;18.10;99.90
28773;DHT22;15925;51.222;5.678;2022-10-26T17:08:40;18.00;99.90
28773;DHT22;15925;51.222;5.678;2022-10-26T17:11:11;17.90;99.90
28773;DHT22;15925;51.222;5.678;2022-10-26T17:13:38;17.90;99.90
28773;DHT22;15925;51.222;5.678;2022-10-26T17:16:05;17.80;99.90
28773;DHT22;15925;51.222;5.678;2022-10-26T17:18:31;17.80;99.90
28773;DHT22;15925;51.222;5.678;2022-10-26T17:20:57;17.70;99.90
28773;DHT22;15925;51.222;5.678;2022-10-26T17:23:23;17.60;99.90
28773;DHT22;15925;51.222;5.678;2022-10-26T17:25:49;17.60;99.90
28773;DHT22;15925;51.222;5.678;2022-10-26T17:28:15;17.50;99.90
28773;DHT22;15925;51.222;5.678;2022-10-26T17:30:41;17.40;99.90
28773;DHT22;15925;51.222;5.678;2022-10-26T17:33:07;17.40;99.90
28773;DHT22;15925;51.222;5.678;2022-10-26T17:35:34;17.30;99.90
28773;DHT22;15925;51.222;5.678;2022-10-26T17:38:00;17.20;99.90
28773;DHT22;15925;51.222;5.678;2022-10-26T17:40:26;17.10;99.90
28773;DHT22;15925;51.222;5.678;2022-10-26T17:42:52;17.10;99.90
28773;DHT22;15925;51.222;5.678;2022-10-26T17:45:21;16.90;99.90
28773;DHT22;15925;51.222;5.678;2022-10-26T17:47:47;16.90;99.90
28773;DHT22;15925;51.222;5.678;2022-10-26T17:50:12;16.80;99.90
28773;DHT22;15925;51.222;5.678;2022-10-26T17:52:38;16.70;99.90
28773;DHT22;15925;51.222;5.678;2022-10-26T17:55:04;16.70;99.90
28773;DHT22;15925;51.222;5.678;2022-10-26T17:57:31;16.50;99.90
28773;DHT22;15925;51.222;5.678;2022-10-26T17:59:58;16.50;99.90
28773;DHT22;15925;51.222;5.678;2022-10-26T18:02:24;16.50;99.90